sensor_id;sensor_type;location;lat;lon;timestamp;temperature;humidity
69715;HTU21D;56981;53.532;49.398;2023-05-29T00:01:34;19.39;77.89
69715;HTU21D;56981;53.532;49.398;2023-05-29T00:04:01;19.29;78.26
69715;HTU21D;56981;53.532;49.398;2023-05-29T00:06:28;19.27;78.27
69715;HTU21D;56981;53.532;49.398;2023-05-29T00:08:55;19.23;78.59
69715;HTU21D;56981;53.532;49.398;2023-05-29T00:11:21;19.12;78.70
69715;HTU21D;56981;53.532;49.398;2023-05-29T00:13:48;19.13;78.85
69715;HTU21D;56981;53.532;49.398;2023-05-29T00:16:14;19.05;79.20
69715;HTU21D;56981;53.532;49.398;2023-05-29T00:18:41;19.05;79.33
69715;HTU21D;56981;53.532;49.398;2023-05-29T00:21:12;19.00;79.69
69715;HTU21D;56981;53.532;49.398;2023-05-29T00:23:41;18.95;79.73
69715;HTU21D;56981;53.532;49.398;2023-05-29T00:26:07;18.92;79.90
69715;HTU21D;56981;53.532;49.398;2023-05-29T00:28:36;18.88;80.17
69715;HTU21D;56981;53.532;49.398;2023-05-29T00:31:03;18.87;80.24
69715;HTU21D;56981;53.532;49.398;2023-05-29T00:33:29;18.82;80.43
69715;HTU21D;56981;53.532;49.398;2023-05-29T00:35:55;18.74;80.94
69715;HTU21D;56981;53.532;49.398;2023-05-29T00:38:21;18.76;80.72
69715;HTU21D;56981;53.532;49.398;2023-05-29T00:40:47;18.77;81.02
69715;HTU21D;56981;53.532;49.398;2023-05-29T00:43:13;18.80;80.85
69715;HTU21D;56981;53.532;49.398;2023-05-29T00:45:39;18.83;80.72
69715;HTU21D;56981;53.532;49.398;2023-05-29T00:48:07;18.79;80.94
69715;HTU21D;56981;53.532;49.398;2023-05-29T00:50:33;18.84;80.62
69715;HTU21D;56981;53.532;49.398;2023-05-29T00:53:01;18.92;80.77
69715;HTU21D;56981;53.532;49.398;2023-05-29T00:55:29;18.99;80.57
69715;HTU21D;56981;53.532;49.398;2023-05-29T00:57:55;19.09;79.94
69715;HTU21D;56981;53.532;49.398;2023-05-29T01:00:22;19.14;79.75
69715;HTU21D;56981;53.532;49.398;2023-05-29T01:02:49;19.15;79.50
69715;HTU21D;56981;53.532;49.398;2023-05-29T01:05:15;19.23;79.14
69715;HTU21D;56981;53.532;49.398;2023-05-29T01:07:42;19.27;79.16
69715;HTU21D;56981;53.532;49.398;2023-05-29T01:10:09;19.32;78.83
69715;HTU21D;56981;53.532;49.398;2023-05-29T01:12:49;19.40;78.63
69715;HTU21D;56981;53.532;49.398;2023-05-29T01:18:34;19.50;77.98
69715;HTU21D;56981;53.532;49.398;2023-05-29T01:21:14;19.47;78.05
69715;HTU21D;56981;53.532;49.398;2023-05-29T01:29:02;19.62;77.92
69715;HTU21D;56981;53.532;49.398;2023-05-29T01:31:30;20.31;75.43
69715;HTU21D;56981;53.532;49.398;2023-05-29T01:33:58;20.87;72.49
69715;HTU21D;56981;53.532;49.398;2023-05-29T01:36:26;20.64;73.32
69715;HTU21D;56981;53.532;49.398;2023-05-29T01:38:54;20.83;72.70
69715;HTU21D;56981;53.532;49.398;2023-05-29T01:41:23;20.60;73.31
69715;HTU21D;56981;53.532;49.398;2023-05-29T01:43:51;20.34;73.82
69715;HTU21D;56981;53.532;49.398;2023-05-29T01:46:18;20.25;74.75
69715;HTU21D;56981;53.532;49.398;2023-05-29T01:48:45;20.20;74.99
69715;HTU21D;56981;53.532;49.398;2023-05-29T01:51:12;20.31;75.01
69715;HTU21D;56981;53.532;49.398;2023-05-29T01:53:41;20.17;75.01
69715;HTU21D;56981;53.532;49.398;2023-05-29T01:56:08;20.12;75.44
69715;HTU21D;56981;53.532;49.398;2023-05-29T01:58:34;20.12;75.31
69715;HTU21D;56981;53.532;49.398;2023-05-29T02:01:05;20.07;75.67
69715;HTU21D;56981;53.532;49.398;2023-05-29T02:03:32;20.03;75.49
69715;HTU21D;56981;53.532;49.398;2023-05-29T02:05:59;20.00;75.96
69715;HTU21D;56981;53.532;49.398;2023-05-29T02:08:25;20.02;75.95
69715;HTU21D;56981;53.532;49.398;2023-05-29T02:10:52;20.02;76.02
69715;HTU21D;56981;53.532;49.398;2023-05-29T02:13:18;19.95;75.70
69715;HTU21D;56981;53.532;49.398;2023-05-29T02:15:45;20.00;76.44
69715;HTU21D;56981;53.532;49.398;2023-05-29T02:18:13;20.07;75.76
69715;HTU21D;56981;53.532;49.398;2023-05-29T02:20:40;20.24;75.01
69715;HTU21D;56981;53.532;49.398;2023-05-29T02:23:09;20.42;74.51
69715;HTU21D;56981;53.532;49.398;2023-05-29T02:25:36;20.68;73.12
69715;HTU21D;56981;53.532;49.398;2023-05-29T02:28:02;20.76;72.82
69715;HTU21D;56981;53.532;49.398;2023-05-29T02:30:29;20.81;73.00
69715;HTU21D;56981;53.532;49.398;2023-05-29T02:32:55;20.87;72.32
69715;HTU21D;56981;53.532;49.398;2023-05-29T02:35:21;21.07;72.16
69715;HTU21D;56981;53.532;49.398;2023-05-29T02:37:49;21.43;69.87
69715;HTU21D;56981;53.532;49.398;2023-05-29T02:40:16;21.70;69.00
69715;HTU21D;56981;53.532;49.398;2023-05-29T02:42:43;21.52;69.15
69715;HTU21D;56981;53.532;49.398;2023-05-29T02:45:13;21.49;69.65
69715;HTU21D;56981;53.532;49.398;2023-05-29T02:47:47;21.35;69.59
69715;HTU21D;56981;53.532;49.398;2023-05-29T02:50:14;21.27;70.32
69715;HTU21D;56981;53.532;49.398;2023-05-29T02:52:40;21.39;70.35
69715;HTU21D;56981;53.532;49.398;2023-05-29T02:55:07;21.30;69.90
69715;HTU21D;56981;53.532;49.398;2023-05-29T02:57:33;21.36;70.26
69715;HTU21D;56981;53.532;49.398;2023-05-29T02:59:59;21.64;69.38
69715;HTU21D;56981;53.532;49.398;2023-05-29T03:02:26;21.96;68.07
69715;HTU21D;56981;53.532;49.398;2023-05-29T03:04:52;22.08;67.36
69715;HTU21D;56981;53.532;49.398;2023-05-29T03:07:19;22.29;66.49
69715;HTU21D;56981;53.532;49.398;2023-05-29T03:09:46;22.78;64.98
69715;HTU21D;56981;53.532;49.398;2023-05-29T03:12:12;23.25;63.22
69715;HTU21D;56981;53.532;49.398;2023-05-29T03:14:38;23.62;62.47
69715;HTU21D;56981;53.532;49.398;2023-05-29T03:17:05;23.86;61.46
69715;HTU21D;56981;53.532;49.398;2023-05-29T03:19:31;25.48;56.67
69715;HTU21D;56981;53.532;49.398;2023-05-29T03:21:57;26.01;53.17
69715;HTU21D;56981;53.532;49.398;2023-05-29T03:24:23;25.81;53.61
69715;HTU21D;56981;53.532;49.398;2023-05-29T03:26:50;25.28;54.91
69715;HTU21D;56981;53.532;49.398;2023-05-29T03:29:17;25.61;54.86
69715;HTU21D;56981;53.532;49.398;2023-05-29T03:31:43;25.80;53.40
69715;HTU21D;56981;53.532;49.398;2023-05-29T03:34:09;27.01;50.56
69715;HTU21D;56981;53.532;49.398;2023-05-29T03:36:35;28.47;44.31
69715;HTU21D;56981;53.532;49.398;2023-05-29T03:39:04;29.43;42.22
69715;HTU21D;56981;53.532;49.398;2023-05-29T03:41:30;30.33;40.55
69715;HTU21D;56981;53.532;49.398;2023-05-29T03:43:57;30.92;39.46
69715;HTU21D;56981;53.532;49.398;2023-05-29T03:46:23;31.45;37.53
69715;HTU21D;56981;53.532;49.398;2023-05-29T03:48:49;31.10;38.34
69715;HTU21D;56981;53.532;49.398;2023-05-29T03:51:15;31.63;37.71
69715;HTU21D;56981;53.532;49.398;2023-05-29T03:53:41;31.76;33.04
69715;HTU21D;56981;53.532;49.398;2023-05-29T03:56:07;31.86;32.84
69715;HTU21D;56981;53.532;49.398;2023-05-29T03:58:34;32.61;33.70
69715;HTU21D;56981;53.532;49.398;2023-05-29T04:01:02;32.54;33.55
69715;HTU21D;56981;53.532;49.398;2023-05-29T04:03:29;32.77;33.31
69715;HTU21D;56981;53.532;49.398;2023-05-29T04:05:56;32.86;32.47
69715;HTU21D;56981;53.532;49.398;2023-05-29T04:08:23;32.32;33.83
69715;HTU21D;56981;53.532;49.398;2023-05-29T04:10:49;31.09;35.73
69715;HTU21D;56981;53.532;49.398;2023-05-29T04:13:20;30.26;37.67
69715;HTU21D;56981;53.532;49.398;2023-05-29T04:15:46;29.46;37.93
69715;HTU21D;56981;53.532;49.398;2023-05-29T04:18:16;29.43;38.93
69715;HTU21D;56981;53.532;49.398;2023-05-29T04:20:42;29.92;37.85
69715;HTU21D;56981;53.532;49.398;2023-05-29T04:23:11;30.27;37.17
69715;HTU21D;56981;53.532;49.398;2023-05-29T04:25:37;30.83;35.18
69715;HTU21D;56981;53.532;49.398;2023-05-29T04:28:03;31.21;34.00
69715;HTU21D;56981;53.532;49.398;2023-05-29T04:30:29;31.57;33.68
69715;HTU21D;56981;53.532;49.398;2023-05-29T04:32:58;31.39;32.86
69715;HTU21D;56981;53.532;49.398;2023-05-29T04:35:25;30.97;33.26
69715;HTU21D;56981;53.532;49.398;2023-05-29T04:37:51;31.26;31.77
69715;HTU21D;56981;53.532;49.398;2023-05-29T04:40:21;31.48;31.70
69715;HTU21D;56981;53.532;49.398;2023-05-29T04:42:50;31.55;30.93
69715;HTU21D;56981;53.532;49.398;2023-05-29T04:45:21;32.33;30.11
69715;HTU21D;56981;53.532;49.398;2023-05-29T04:47:48;32.37;29.63
69715;HTU21D;56981;53.532;49.398;2023-05-29T04:50:17;32.40;31.04
69715;HTU21D;56981;53.532;49.398;2023-05-29T04:52:43;32.67;29.68
69715;HTU21D;56981;53.532;49.398;2023-05-29T04:55:10;32.17;30.83
69715;HTU21D;56981;53.532;49.398;2023-05-29T04:57:36;32.07;30.38
69715;HTU21D;56981;53.532;49.398;2023-05-29T05:00:03;32.77;29.44
69715;HTU21D;56981;53.532;49.398;2023-05-29T05:02:34;33.07;30.09
69715;HTU21D;56981;53.532;49.398;2023-05-29T05:05:03;33.68;29.05
69715;HTU21D;56981;53.532;49.398;2023-05-29T05:07:29;33.83;26.08
69715;HTU21D;56981;53.532;49.398;2023-05-29T05:09:55;34.60;26.86
69715;HTU21D;56981;53.532;49.398;2023-05-29T05:12:22;34.05;25.65
69715;HTU21D;56981;53.532;49.398;2023-05-29T05:14:48;32.89;27.22
69715;HTU21D;56981;53.532;49.398;2023-05-29T05:17:14;33.13;27.10
69715;HTU21D;56981;53.532;49.398;2023-05-29T05:19:40;33.20;27.58
69715;HTU21D;56981;53.532;49.398;2023-05-29T05:22:06;33.29;28.33
69715;HTU21D;56981;53.532;49.398;2023-05-29T05:24:33;33.43;26.91
69715;HTU21D;56981;53.532;49.398;2023-05-29T05:27:00;33.17;25.90
69715;HTU21D;56981;53.532;49.398;2023-05-29T05:29:26;33.63;25.79
69715;HTU21D;56981;53.532;49.398;2023-05-29T05:31:52;34.20;25.10
69715;HTU21D;56981;53.532;49.398;2023-05-29T05:34:19;34.63;25.24
69715;HTU21D;56981;53.532;49.398;2023-05-29T05:36:45;34.45;26.14
69715;HTU21D;56981;53.532;49.398;2023-05-29T05:39:11;34.38;23.99
69715;HTU21D;56981;53.532;49.398;2023-05-29T05:41:37;34.51;21.66
69715;HTU21D;56981;53.532;49.398;2023-05-29T05:44:03;34.42;22.15
69715;HTU21D;56981;53.532;49.398;2023-05-29T05:46:29;34.86;22.34
69715;HTU21D;56981;53.532;49.398;2023-05-29T05:48:56;34.93;22.73
69715;HTU21D;56981;53.532;49.398;2023-05-29T05:51:26;34.40;22.37
69715;HTU21D;56981;53.532;49.398;2023-05-29T05:53:53;34.51;24.13
69715;HTU21D;56981;53.532;49.398;2023-05-29T05:56:19;34.47;24.27
69715;HTU21D;56981;53.532;49.398;2023-05-29T05:58:45;34.16;22.89
69715;HTU21D;56981;53.532;49.398;2023-05-29T06:01:12;34.07;24.49
69715;HTU21D;56981;53.532;49.398;2023-05-29T06:03:38;33.61;24.85
69715;HTU21D;56981;53.532;49.398;2023-05-29T06:06:04;33.43;24.27
69715;HTU21D;56981;53.532;49.398;2023-05-29T06:08:30;33.58;21.40
69715;HTU21D;56981;53.532;49.398;2023-05-29T06:10:57;33.80;22.59
69715;HTU21D;56981;53.532;49.398;2023-05-29T06:13:23;33.49;22.72
69715;HTU21D;56981;53.532;49.398;2023-05-29T06:15:49;32.75;24.17
69715;HTU21D;56981;53.532;49.398;2023-05-29T06:18:15;32.77;25.74
69715;HTU21D;56981;53.532;49.398;2023-05-29T06:20:42;32.62;26.01
69715;HTU21D;56981;53.532;49.398;2023-05-29T06:23:08;32.18;24.96
69715;HTU21D;56981;53.532;49.398;2023-05-29T06:25:34;32.02;26.92
69715;HTU21D;56981;53.532;49.398;2023-05-29T06:28:00;31.49;26.84
69715;HTU21D;56981;53.532;49.398;2023-05-29T06:30:27;30.83;26.23
69715;HTU21D;56981;53.532;49.398;2023-05-29T06:32:53;30.77;26.65
69715;HTU21D;56981;53.532;49.398;2023-05-29T06:35:19;31.76;24.62
69715;HTU21D;56981;53.532;49.398;2023-05-29T06:37:46;32.05;24.66
69715;HTU21D;56981;53.532;49.398;2023-05-29T06:40:13;32.00;23.24
69715;HTU21D;56981;53.532;49.398;2023-05-29T06:42:39;32.70;21.65
69715;HTU21D;56981;53.532;49.398;2023-05-29T06:45:06;32.93;20.07
69715;HTU21D;56981;53.532;49.398;2023-05-29T06:47:33;32.77;19.81
69715;HTU21D;56981;53.532;49.398;2023-05-29T06:49:59;33.11;19.17
69715;HTU21D;56981;53.532;49.398;2023-05-29T06:52:25;32.97;18.48
69715;HTU21D;56981;53.532;49.398;2023-05-29T06:54:51;32.96;18.55
69715;HTU21D;56981;53.532;49.398;2023-05-29T06:57:19;32.96;19.44
69715;HTU21D;56981;53.532;49.398;2023-05-29T06:59:46;33.35;19.79
69715;HTU21D;56981;53.532;49.398;2023-05-29T07:02:12;33.60;19.15
69715;HTU21D;56981;53.532;49.398;2023-05-29T07:04:38;34.04;19.83
69715;HTU21D;56981;53.532;49.398;2023-05-29T07:07:04;34.17;19.10
69715;HTU21D;56981;53.532;49.398;2023-05-29T07:09:30;33.95;18.62
69715;HTU21D;56981;53.532;49.398;2023-05-29T07:11:56;33.86;17.92
69715;HTU21D;56981;53.532;49.398;2023-05-29T07:14:22;32.99;18.94
69715;HTU21D;56981;53.532;49.398;2023-05-29T07:16:48;33.22;18.99
69715;HTU21D;56981;53.532;49.398;2023-05-29T07:19:15;33.22;18.64
69715;HTU21D;56981;53.532;49.398;2023-05-29T07:21:42;33.27;19.63
69715;HTU21D;56981;53.532;49.398;2023-05-29T07:24:08;32.86;19.29
69715;HTU21D;56981;53.532;49.398;2023-05-29T07:26:34;32.81;20.58
69715;HTU21D;56981;53.532;49.398;2023-05-29T07:29:00;32.66;20.54
69715;HTU21D;56981;53.532;49.398;2023-05-29T07:31:26;32.81;19.62
69715;HTU21D;56981;53.532;49.398;2023-05-29T07:33:53;32.97;21.76
69715;HTU21D;56981;53.532;49.398;2023-05-29T07:36:19;32.92;19.49
69715;HTU21D;56981;53.532;49.398;2023-05-29T07:38:46;32.70;20.47
69715;HTU21D;56981;53.532;49.398;2023-05-29T07:41:15;32.74;20.28
69715;HTU21D;56981;53.532;49.398;2023-05-29T07:43:43;32.93;21.53
69715;HTU21D;56981;53.532;49.398;2023-05-29T07:46:11;32.91;20.08
69715;HTU21D;56981;53.532;49.398;2023-05-29T07:48:37;32.71;19.89
69715;HTU21D;56981;53.532;49.398;2023-05-29T07:51:03;32.61;20.20
69715;HTU21D;56981;53.532;49.398;2023-05-29T07:53:30;32.58;20.75
69715;HTU21D;56981;53.532;49.398;2023-05-29T07:55:56;32.39;22.08
69715;HTU21D;56981;53.532;49.398;2023-05-29T07:58:22;32.35;20.84
69715;HTU21D;56981;53.532;49.398;2023-05-29T08:00:48;31.99;23.15
69715;HTU21D;56981;53.532;49.398;2023-05-29T08:03:14;31.87;21.77
69715;HTU21D;56981;53.532;49.398;2023-05-29T08:05:41;32.10;21.15
69715;HTU21D;56981;53.532;49.398;2023-05-29T08:08:07;32.44;21.57
69715;HTU21D;56981;53.532;49.398;2023-05-29T08:10:36;32.17;21.81
69715;HTU21D;56981;53.532;49.398;2023-05-29T08:13:02;32.57;22.15
69715;HTU21D;56981;53.532;49.398;2023-05-29T08:15:28;32.12;21.97
69715;HTU21D;56981;53.532;49.398;2023-05-29T08:17:54;31.95;22.82
69715;HTU21D;56981;53.532;49.398;2023-05-29T08:20:21;31.93;22.93
69715;HTU21D;56981;53.532;49.398;2023-05-29T08:22:47;31.95;22.67
69715;HTU21D;56981;53.532;49.398;2023-05-29T08:25:14;31.74;23.62
69715;HTU21D;56981;53.532;49.398;2023-05-29T08:27:40;31.96;22.42
69715;HTU21D;56981;53.532;49.398;2023-05-29T08:30:07;32.20;22.88
69715;HTU21D;56981;53.532;49.398;2023-05-29T08:32:33;32.03;23.34
69715;HTU21D;56981;53.532;49.398;2023-05-29T08:34:59;31.72;22.95
69715;HTU21D;56981;53.532;49.398;2023-05-29T08:37:27;31.70;23.71
69715;HTU21D;56981;53.532;49.398;2023-05-29T08:39:53;31.73;24.01
69715;HTU21D;56981;53.532;49.398;2023-05-29T08:42:22;30.76;23.40
69715;HTU21D;56981;53.532;49.398;2023-05-29T08:44:51;30.60;24.56
69715;HTU21D;56981;53.532;49.398;2023-05-29T08:47:22;30.56;23.99
69715;HTU21D;56981;53.532;49.398;2023-05-29T08:49:52;30.49;23.72
69715;HTU21D;56981;53.532;49.398;2023-05-29T08:52:21;30.57;26.08
69715;HTU21D;56981;53.532;49.398;2023-05-29T08:54:47;30.24;23.45
69715;HTU21D;56981;53.532;49.398;2023-05-29T08:57:14;30.10;24.82
69715;HTU21D;56981;53.532;49.398;2023-05-29T08:59:44;30.01;24.56
69715;HTU21D;56981;53.532;49.398;2023-05-29T09:02:10;29.96;24.94
69715;HTU21D;56981;53.532;49.398;2023-05-29T09:04:37;29.83;25.71
69715;HTU21D;56981;53.532;49.398;2023-05-29T09:07:04;29.39;25.20
69715;HTU21D;56981;53.532;49.398;2023-05-29T09:09:34;29.32;25.46
69715;HTU21D;56981;53.532;49.398;2023-05-29T09:12:01;29.35;25.87
69715;HTU21D;56981;53.532;49.398;2023-05-29T09:17:03;29.26;25.43
69715;HTU21D;56981;53.532;49.398;2023-05-29T09:19:30;29.41;25.60
69715;HTU21D;56981;53.532;49.398;2023-05-29T09:22:06;29.37;27.42
69715;HTU21D;56981;53.532;49.398;2023-05-29T09:24:34;29.51;26.30
69715;HTU21D;56981;53.532;49.398;2023-05-29T09:27:03;29.35;25.72
69715;HTU21D;56981;53.532;49.398;2023-05-29T09:29:39;28.91;26.66
69715;HTU21D;56981;53.532;49.398;2023-05-29T09:32:11;28.68;27.90
69715;HTU21D;56981;53.532;49.398;2023-05-29T09:34:37;28.32;29.10
69715;HTU21D;56981;53.532;49.398;2023-05-29T09:37:06;28.30;28.57
69715;HTU21D;56981;53.532;49.398;2023-05-29T09:39:45;28.41;28.34
69715;HTU21D;56981;53.532;49.398;2023-05-29T09:42:13;28.40;28.40
69715;HTU21D;56981;53.532;49.398;2023-05-29T09:44:43;28.56;28.45
69715;HTU21D;56981;53.532;49.398;2023-05-29T09:47:14;28.65;27.86
69715;HTU21D;56981;53.532;49.398;2023-05-29T09:49:42;28.58;27.89
69715;HTU21D;56981;53.532;49.398;2023-05-29T09:52:13;28.39;28.39
69715;HTU21D;56981;53.532;49.398;2023-05-29T09:54:43;28.03;29.64
69715;HTU21D;56981;53.532;49.398;2023-05-29T09:57:16;28.12;30.11
69715;HTU21D;56981;53.532;49.398;2023-05-29T09:59:43;28.20;30.10
69715;HTU21D;56981;53.532;49.398;2023-05-29T10:02:19;27.91;29.50
69715;HTU21D;56981;53.532;49.398;2023-05-29T10:04:45;27.74;30.29
69715;HTU21D;56981;53.532;49.398;2023-05-29T10:07:26;27.44;30.49
69715;HTU21D;56981;53.532;49.398;2023-05-29T10:09:59;27.31;31.51
69715;HTU21D;56981;53.532;49.398;2023-05-29T10:12:27;26.95;31.74
69715;HTU21D;56981;53.532;49.398;2023-05-29T10:14:59;27.22;33.43
69715;HTU21D;56981;53.532;49.398;2023-05-29T10:17:30;27.40;31.86
69715;HTU21D;56981;53.532;49.398;2023-05-29T10:19:58;27.32;31.80
69715;HTU21D;56981;53.532;49.398;2023-05-29T10:22:27;27.09;31.38
69715;HTU21D;56981;53.532;49.398;2023-05-29T10:24:56;27.12;32.28
69715;HTU21D;56981;53.532;49.398;2023-05-29T10:27:23;26.93;32.40
69715;HTU21D;56981;53.532;49.398;2023-05-29T10:29:55;26.98;32.20
69715;HTU21D;56981;53.532;49.398;2023-05-29T10:32:37;27.06;33.70
69715;HTU21D;56981;53.532;49.398;2023-05-29T10:38:12;27.04;32.53
69715;HTU21D;56981;53.532;49.398;2023-05-29T10:40:39;26.96;32.24
69715;HTU21D;56981;53.532;49.398;2023-05-29T10:43:05;26.94;32.50
69715;HTU21D;56981;53.532;49.398;2023-05-29T10:50:44;27.11;33.28
69715;HTU21D;56981;53.532;49.398;2023-05-29T10:53:15;26.80;32.54
69715;HTU21D;56981;53.532;49.398;2023-05-29T10:55:42;26.76;32.93
69715;HTU21D;56981;53.532;49.398;2023-05-29T10:58:18;26.89;34.43
69715;HTU21D;56981;53.532;49.398;2023-05-29T11:00:46;26.87;33.67
69715;HTU21D;56981;53.532;49.398;2023-05-29T11:03:20;26.66;33.18
69715;HTU21D;56981;53.532;49.398;2023-05-29T11:06:19;26.43;33.25
69715;HTU21D;56981;53.532;49.398;2023-05-29T11:08:47;26.48;33.61
69715;HTU21D;56981;53.532;49.398;2023-05-29T11:11:14;26.41;33.27
69715;HTU21D;56981;53.532;49.398;2023-05-29T11:13:41;26.43;33.99
69715;HTU21D;56981;53.532;49.398;2023-05-29T11:16:37;26.50;33.15
69715;HTU21D;56981;53.532;49.398;2023-05-29T11:19:08;26.48;34.38
69715;HTU21D;56981;53.532;49.398;2023-05-29T11:24:27;26.36;33.41
69715;HTU21D;56981;53.532;49.398;2023-05-29T11:26:56;26.37;33.63
69715;HTU21D;56981;53.532;49.398;2023-05-29T11:29:28;26.34;34.49
69715;HTU21D;56981;53.532;49.398;2023-05-29T11:32:05;26.45;33.24
69715;HTU21D;56981;53.532;49.398;2023-05-29T11:34:33;26.33;33.20
69715;HTU21D;56981;53.532;49.398;2023-05-29T11:37:00;26.13;33.47
69715;HTU21D;56981;53.532;49.398;2023-05-29T11:39:28;26.05;33.57
69715;HTU21D;56981;53.532;49.398;2023-05-29T11:41:55;26.04;32.98
69715;HTU21D;56981;53.532;49.398;2023-05-29T11:44:24;26.13;33.94
69715;HTU21D;56981;53.532;49.398;2023-05-29T11:47:01;26.05;34.36
69715;HTU21D;56981;53.532;49.398;2023-05-29T11:49:29;26.26;35.44
69715;HTU21D;56981;53.532;49.398;2023-05-29T11:52:25;26.10;33.62
69715;HTU21D;56981;53.532;49.398;2023-05-29T11:54:52;26.10;33.57
69715;HTU21D;56981;53.532;49.398;2023-05-29T11:57:22;25.99;34.35
69715;HTU21D;56981;53.532;49.398;2023-05-29T11:59:49;26.10;33.88
69715;HTU21D;56981;53.532;49.398;2023-05-29T12:02:17;26.09;34.02
69715;HTU21D;56981;53.532;49.398;2023-05-29T12:04:59;26.18;34.82
69715;HTU21D;56981;53.532;49.398;2023-05-29T12:07:26;26.28;34.45
69715;HTU21D;56981;53.532;49.398;2023-05-29T12:09:52;26.38;34.76
69715;HTU21D;56981;53.532;49.398;2023-05-29T12:12:26;26.38;33.76
69715;HTU21D;56981;53.532;49.398;2023-05-29T12:14:53;26.32;32.73
69715;HTU21D;56981;53.532;49.398;2023-05-29T12:17:20;26.24;32.73
69715;HTU21D;56981;53.532;49.398;2023-05-29T12:19:46;26.25;32.75
69715;HTU21D;56981;53.532;49.398;2023-05-29T12:22:13;26.28;33.81
69715;HTU21D;56981;53.532;49.398;2023-05-29T12:24:39;26.18;32.22
69715;HTU21D;56981;53.532;49.398;2023-05-29T12:27:05;26.06;32.36
69715;HTU21D;56981;53.532;49.398;2023-05-29T12:29:33;26.02;30.78
69715;HTU21D;56981;53.532;49.398;2023-05-29T12:31:59;25.88;31.09
69715;HTU21D;56981;53.532;49.398;2023-05-29T12:34:25;25.93;32.33
69715;HTU21D;56981;53.532;49.398;2023-05-29T12:36:51;25.87;31.57
69715;HTU21D;56981;53.532;49.398;2023-05-29T12:39:17;25.87;30.71
69715;HTU21D;56981;53.532;49.398;2023-05-29T12:41:43;25.91;31.35
69715;HTU21D;56981;53.532;49.398;2023-05-29T12:44:10;25.84;31.03
69715;HTU21D;56981;53.532;49.398;2023-05-29T12:46:38;25.71;30.20
69715;HTU21D;56981;53.532;49.398;2023-05-29T12:49:14;25.64;30.25
69715;HTU21D;56981;53.532;49.398;2023-05-29T12:51:44;25.58;31.14
69715;HTU21D;56981;53.532;49.398;2023-05-29T12:54:12;25.64;30.38
69715;HTU21D;56981;53.532;49.398;2023-05-29T12:56:38;25.76;31.72
69715;HTU21D;56981;53.532;49.398;2023-05-29T12:59:08;25.89;30.50
69715;HTU21D;56981;53.532;49.398;2023-05-29T13:01:35;25.78;29.23
69715;HTU21D;56981;53.532;49.398;2023-05-29T13:04:01;25.62;28.42
69715;HTU21D;56981;53.532;49.398;2023-05-29T13:06:27;25.60;28.65
69715;HTU21D;56981;53.532;49.398;2023-05-29T13:08:53;25.56;29.26
69715;HTU21D;56981;53.532;49.398;2023-05-29T13:11:19;25.61;28.81
69715;HTU21D;56981;53.532;49.398;2023-05-29T13:13:46;25.71;30.00
69715;HTU21D;56981;53.532;49.398;2023-05-29T13:16:12;25.80;28.97
69715;HTU21D;56981;53.532;49.398;2023-05-29T13:18:38;25.73;28.00
69715;HTU21D;56981;53.532;49.398;2023-05-29T13:21:04;25.66;27.47
69715;HTU21D;56981;53.532;49.398;2023-05-29T13:23:31;25.67;28.45
69715;HTU21D;56981;53.532;49.398;2023-05-29T13:25:57;25.63;26.77
69715;HTU21D;56981;53.532;49.398;2023-05-29T13:28:23;25.57;27.59
69715;HTU21D;56981;53.532;49.398;2023-05-29T13:30:50;25.46;28.01
69715;HTU21D;56981;53.532;49.398;2023-05-29T13:33:16;25.40;27.71
69715;HTU21D;56981;53.532;49.398;2023-05-29T13:35:42;25.38;28.02
69715;HTU21D;56981;53.532;49.398;2023-05-29T13:38:08;25.31;28.15
69715;HTU21D;56981;53.532;49.398;2023-05-29T13:40:34;25.20;27.91
69715;HTU21D;56981;53.532;49.398;2023-05-29T13:43:01;25.10;27.23
69715;HTU21D;56981;53.532;49.398;2023-05-29T13:45:27;25.18;27.95
69715;HTU21D;56981;53.532;49.398;2023-05-29T13:47:54;25.23;28.16
69715;HTU21D;56981;53.532;49.398;2023-05-29T13:50:21;25.33;27.95
69715;HTU21D;56981;53.532;49.398;2023-05-29T13:52:49;25.27;26.31
69715;HTU21D;56981;53.532;49.398;2023-05-29T13:55:16;25.30;26.29
69715;HTU21D;56981;53.532;49.398;2023-05-29T13:57:42;25.25;25.78
69715;HTU21D;56981;53.532;49.398;2023-05-29T14:00:10;25.34;26.64
69715;HTU21D;56981;53.532;49.398;2023-05-29T14:02:37;25.39;25.84
69715;HTU21D;56981;53.532;49.398;2023-05-29T14:05:04;25.39;26.94
69715;HTU21D;56981;53.532;49.398;2023-05-29T14:07:31;25.33;25.26
69715;HTU21D;56981;53.532;49.398;2023-05-29T14:09:58;25.38;25.56
69715;HTU21D;56981;53.532;49.398;2023-05-29T14:12:24;25.34;26.27
69715;HTU21D;56981;53.532;49.398;2023-05-29T14:14:50;25.34;26.84
69715;HTU21D;56981;53.532;49.398;2023-05-29T14:17:16;25.29;28.48
69715;HTU21D;56981;53.532;49.398;2023-05-29T14:19:42;25.25;27.96
69715;HTU21D;56981;53.532;49.398;2023-05-29T14:22:11;25.19;28.71
69715;HTU21D;56981;53.532;49.398;2023-05-29T14:24:38;25.12;28.05
69715;HTU21D;56981;53.532;49.398;2023-05-29T14:27:04;25.12;28.17
69715;HTU21D;56981;53.532;49.398;2023-05-29T14:29:31;25.00;28.25
69715;HTU21D;56981;53.532;49.398;2023-05-29T14:31:57;24.95;28.55
69715;HTU21D;56981;53.532;49.398;2023-05-29T14:34:23;24.92;28.68
69715;HTU21D;56981;53.532;49.398;2023-05-29T14:36:49;24.97;28.82
69715;HTU21D;56981;53.532;49.398;2023-05-29T14:39:15;25.01;29.08
69715;HTU21D;56981;53.532;49.398;2023-05-29T14:41:41;25.12;28.26
69715;HTU21D;56981;53.532;49.398;2023-05-29T14:44:07;25.08;28.36
69715;HTU21D;56981;53.532;49.398;2023-05-29T14:46:33;25.06;29.26
69715;HTU21D;56981;53.532;49.398;2023-05-29T14:49:00;24.94;28.69
69715;HTU21D;56981;53.532;49.398;2023-05-29T14:51:27;24.89;27.43
69715;HTU21D;56981;53.532;49.398;2023-05-29T14:53:53;24.88;28.65
69715;HTU21D;56981;53.532;49.398;2023-05-29T14:56:19;24.80;28.27
69715;HTU21D;56981;53.532;49.398;2023-05-29T14:58:46;24.73;27.84
69715;HTU21D;56981;53.532;49.398;2023-05-29T15:01:15;24.62;28.01
69715;HTU21D;56981;53.532;49.398;2023-05-29T15:03:41;24.56;27.27
69715;HTU21D;56981;53.532;49.398;2023-05-29T15:06:09;24.49;28.48
69715;HTU21D;56981;53.532;49.398;2023-05-29T15:08:38;24.42;27.43
69715;HTU21D;56981;53.532;49.398;2023-05-29T15:11:05;24.40;27.43
69715;HTU21D;56981;53.532;49.398;2023-05-29T15:13:31;24.31;27.57
69715;HTU21D;56981;53.532;49.398;2023-05-29T15:15:58;24.26;28.01
69715;HTU21D;56981;53.532;49.398;2023-05-29T15:18:26;24.25;28.24
69715;HTU21D;56981;53.532;49.398;2023-05-29T15:20:53;24.23;28.84
69715;HTU21D;56981;53.532;49.398;2023-05-29T15:23:19;24.14;29.16
69715;HTU21D;56981;53.532;49.398;2023-05-29T15:25:49;24.08;29.39
69715;HTU21D;56981;53.532;49.398;2023-05-29T15:28:16;24.06;29.21